Main page
METAR-TAF:

METAR-TAF

Airports :

F 7 Såtenäs

Såtenäs, Sweden

latitude: 58-26N, longitude: 012-42E, elevation: 54 m

Current weather observation

The report was made 21 minutes ago, at 22:20 UTC
Wind 7 kt from the South/Southeast
Temperature 13°C
Humidity 94%
Pressure 1010 hPa
Visibility 10 km or more

METAR: ESIB 142220Z AUTO 15007KT 9999 NCD 13/12 Q1010

Time: 00:41 (22:41 UTC)


TAF: missing

Weather observations and forecasts of more than 4000 airports (METAR and TAF reports).

The available stations are represented by yellow and red dots on the map.

Hover mouse over dot to see the name of the station.

Then click to see weather observations and forecasts.

To change the map : click on the green buttons with a black cross to zoom in, on the green button with a dash to zoom out, or on the green arrows for adjacent maps.


METAR-TAF: